^^
Your Local Weather - Clay, NY Station Historical Data
Daily Summary for May 12, 2017 Units:  Metric    English   Both
« Previous Day
Next Day »
Daily Weekly Monthly Yearly Custom
  High: Low: Average:
Temperature: 19.6 °C 3.7 °C 12.6 °C
Dew Point: 9.2 °C 2.5 °C 6.3 °C
Humidity: 93% 43% 69%
Wind Speed: 6.4km/h 0km/h 1.1km/h
Wind Gust: 9.7km/h - -
Wind- - South
Pressure: 1015.8 hPa 1011.1 hPa -
Precipitation: 0 mm    
Historical Graphs
 
 
Tabular Data for May 12, 2017
Time Temperature Dew Point Pressure Wind Wind Speed Wind Gust Humidity Rainfall Rate (Hourly) solar
00:02 7.9 °C 5.2 °C 1014.1 hPa Calm     83% 0 mm 0 W/m2
00:08 7.7 °C 5.2 °C 1014.1 hPa Calm     84% 0 mm 0 W/m2
00:14 7.6 °C 5.2 °C 1014.1 hPa Calm     85% 0 mm 0 W/m2
00:20 7.4 °C 5.1 °C 1014.1 hPa Calm     85% 0 mm 0 W/m2
00:26 7.3 °C 4.9 °C 1014.1 hPa Calm     85% 0 mm 0 W/m2
00:32 7.1 °C 4.9 °C 1014.1 hPa Calm     86% 0 mm 0 W/m2
00:38 6.9 °C 4.9 °C 1014.1 hPa Calm     87% 0 mm 0 W/m2
00:44 6.8 °C 4.8 °C 1014.1 hPa Calm     87% 0 mm 0 W/m2
00:50 6.6 °C 4.6 °C 1014.1 hPa Calm     87% 0 mm 0 W/m2
00:56 6.6 °C 4.6 °C 1014.1 hPa Calm     87% 0 mm 0 W/m2
01:02 6.4 °C 4.6 °C 1014.1 hPa Calm     88% 0 mm 0 W/m2
01:08 6.3 °C 4.5 °C 1014.1 hPa Calm     88% 0 mm 0 W/m2
01:14 6.2 °C 4.4 °C 1014.1 hPa Calm     88% 0 mm 0 W/m2
01:20 6.1 °C 4.3 °C 1014.1 hPa Calm     88% 0 mm 0 W/m2
01:26 6 °C 4.2 °C 1014.1 hPa Calm     88% 0 mm 0 W/m2
01:32 5.9 °C 4.3 °C 1014.1 hPa Calm     89% 0 mm 0 W/m2
01:38 5.8 °C 4.2 °C 1014.1 hPa Calm     89% 0 mm 0 W/m2
01:44 5.7 °C 4 °C 1014.1 hPa Calm     89% 0 mm 0 W/m2
01:50 5.6 °C 3.9 °C 1014.1 hPa Calm     89% 0 mm 0 W/m2
01:56 5.6 °C 3.9 °C 1014.1 hPa Calm     89% 0 mm 0 W/m2
02:02 5.4 °C 3.8 °C 1014.1 hPa Calm     89% 0 mm 0 W/m2
02:08 5.3 °C 3.6 °C 1014.1 hPa Calm     89% 0 mm 0 W/m2
02:14 5.3 °C 3.6 °C 1014.1 hPa Calm     89% 0 mm 0 W/m2
02:20 5.3 °C 3.8 °C 1014.1 hPa Calm     90% 0 mm 0 W/m2
02:26 5.3 °C 3.8 °C 1014.1 hPa Calm     90% 0 mm 0 W/m2
02:32 5.3 °C 3.8 °C 1014.1 hPa Calm     90% 0 mm 0 W/m2
02:38 5.2 °C 3.7 °C 1014.1 hPa Calm     90% 0 mm 0 W/m2
02:44 5.2 °C 3.7 °C 1014.1 hPa Calm     90% 0 mm 0 W/m2
02:50 5.1 °C 3.6 °C 1013.8 hPa Calm     90% 0 mm 0 W/m2
02:56 5.1 °C 3.6 °C 1013.8 hPa Calm     90% 0 mm 0 W/m2
03:02 5.1 °C 3.6 °C 1013.8 hPa Calm     90% 0 mm 0 W/m2
03:08 5.2 °C 3.8 °C 1013.8 hPa Calm     91% 0 mm 0 W/m2
03:14 5.1 °C 3.8 °C 1013.8 hPa Calm     91% 0 mm 0 W/m2
03:20 5.1 °C 3.7 °C 1013.8 hPa Calm     91% 0 mm 0 W/m2
03:26 4.9 °C 3.6 °C 1013.8 hPa Calm     91% 0 mm 0 W/m2
03:32 4.7 °C 3.4 °C 1013.8 hPa Calm     91% 0 mm 0 W/m2
03:38 4.6 °C 3.3 °C 1013.8 hPa Calm     91% 0 mm 0 W/m2
03:46 4.6 °C 3.2 °C 1013.8 hPa Calm     91% 0 mm 0 W/m2
03:52 4.5 °C 3.2 °C 1013.8 hPa Calm     91% 0 mm 0 W/m2
03:58 4.4 °C 3.1 °C 1013.8 hPa Calm     91% 0 mm 0 W/m2
04:04 4.4 °C 3.1 °C 1013.8 hPa Calm     91% 0 mm 0 W/m2
04:10 4.3 °C 2.9 °C 1013.8 hPa Calm     91% 0 mm 0 W/m2
04:16 4.2 °C 2.8 °C 1013.8 hPa Calm     91% 0 mm 0 W/m2
04:22 4.1 °C 2.8 °C 1013.8 hPa Calm     91% 0 mm 0 W/m2
04:28 4.1 °C 2.8 °C 1014.1 hPa Calm     91% 0 mm 0 W/m2
04:34 4.1 °C 2.7 °C 1014.1 hPa Calm     91% 0 mm 0 W/m2
04:40 4 °C 2.7 °C 1014.1 hPa Calm     91% 0 mm 0 W/m2
04:46 3.9 °C 2.7 °C 1014.1 hPa Calm     92% 0 mm 0 W/m2
04:52 3.8 °C 2.7 °C 1014.1 hPa Calm     92% 0 mm 0 W/m2
04:58 3.8 °C 2.7 °C 1014.1 hPa Calm     92% 0 mm 0 W/m2
05:04 3.7 °C 2.6 °C 1014.4 hPa Calm     92% 0 mm 0 W/m2
05:10 3.7 °C 2.5 °C 1014.4 hPa Calm     92% 0 mm 0 W/m2
05:15 3.7 °C 2.6 °C 1014.4 hPa Calm     92% 0 mm 0 W/m2
05:22 4.1 °C 2.9 °C 1014.4 hPa Calm     92% 0 mm 0 W/m2
05:28 4.1 °C 2.9 °C 1014.4 hPa Calm     92% 0 mm 0 W/m2
05:34 4.2 °C 3 °C 1014.4 hPa Calm     92% 0 mm 0 W/m2
05:40 4.3 °C 3.1 °C 1014.4 hPa Calm     92% 0 mm 0 W/m2
05:46 4.3 °C 3.1 °C 1014.4 hPa Calm     92% 0 mm 5 W/m2
05:52 4.2 °C 3.1 °C 1014.8 hPa Calm     92% 0 mm 7 W/m2
05:58 4.2 °C 3 °C 1014.8 hPa Calm     92% 0 mm 9 W/m2
06:04 4.2 °C 3.1 °C 1014.8 hPa Calm   1.6 km/h 92% 0 mm 12 W/m2
06:10 4.2 °C 3.1 °C 1015.1 hPa Calm     92% 0 mm 16 W/m2
06:16 4.2 °C 3.1 °C 1015.1 hPa Calm     92% 0 mm 19 W/m2
06:22 4.2 °C 3.2 °C 1015.1 hPa Calm     93% 0 mm 25 W/m2
06:28 4.4 °C 3.2 °C 1015.1 hPa Calm     92% 0 mm 62 W/m2
06:34 4.7 °C 3.6 °C 1015.5 hPa Calm     93% 0 mm 95 W/m2
06:40 4.9 °C 3.9 °C 1015.5 hPa Calm     93% 0 mm 123 W/m2
06:46 5.6 °C 4.5 °C 1015.5 hPa Calm     93% 0 mm 148 W/m2
06:52 5.7 °C 4.7 °C 1015.5 hPa Calm     93% 0 mm 153 W/m2
06:58 6.7 °C 5.7 °C 1015.5 hPa Calm     93% 0 mm 171 W/m2
07:04 7.3 °C 6.2 °C 1015.5 hPa Calm     93% 0 mm 181 W/m2
07:10 7.6 °C 6.5 °C 1015.5 hPa Calm     93% 0 mm 193 W/m2
07:16 8.1 °C 7 °C 1015.5 hPa Calm     93% 0 mm 204 W/m2
07:22 8.2 °C 7.1 °C 1015.5 hPa Calm     93% 0 mm 221 W/m2
07:28 8.2 °C 7 °C 1015.5 hPa Calm     92% 0 mm 237 W/m2
07:34 8.6 °C 7.2 °C 1015.8 hPa Calm     91% 0 mm 251 W/m2
07:40 8.9 °C 7.3 °C 1015.8 hPa Calm     90% 0 mm 274 W/m2
07:46 9.4 °C 7.6 °C 1015.8 hPa Calm     88% 0 mm 295 W/m2
07:52 9.9 °C 7.3 °C 1015.8 hPa Calm     84% 0 mm 315 W/m2
07:58 10.4 °C 7.5 °C 1015.8 hPa Calm     82% 0 mm 336 W/m2
08:04 10.6 °C 7.3 °C 1015.8 hPa Calm     80% 0 mm 352 W/m2
08:10 10.7 °C 7.2 °C 1015.8 hPa Calm     79% 0 mm 374 W/m2
08:16 11.4 °C 7.9 °C 1015.5 hPa Calm     79% 0 mm 392 W/m2
08:22 11.8 °C 7.7 °C 1015.5 hPa Calm     76% 0 mm 410 W/m2
08:28 11.9 °C 7.3 °C 1015.8 hPa Calm   1.6 km/h 73% 0 mm 445 W/m2
08:34 12.2 °C 7.3 °C 1015.8 hPa Calm   6.4 km/h 72% 0 mm 501 W/m2
08:40 12.3 °C 7.2 °C 1015.8 hPa ESE 1.6 km/h 1.6 km/h 71% 0 mm 547 W/m2
08:46 12.7 °C 7.8 °C 1015.5 hPa ESE 1.6 km/h 3.2 km/h 72% 0 mm 580 W/m2
08:52 12.8 °C 7.7 °C 1015.5 hPa ESE 1.6 km/h 1.6 km/h 71% 0 mm 585 W/m2
08:58 13.2 °C 7.8 °C 1015.5 hPa Calm   4.8 km/h 70% 0 mm 608 W/m2
09:04 13.3 °C 7.7 °C 1015.5 hPa SSE 1.6 km/h 6.4 km/h 69% 0 mm 401 W/m2
09:10 12.8 °C 7 °C 1015.5 hPa SE 3.2 km/h 3.2 km/h 68% 0 mm 330 W/m2
09:16 12.8 °C 7.2 °C 1015.5 hPa SE 3.2 km/h 3.2 km/h 69% 0 mm 557 W/m2
09:22 12.9 °C 7.1 °C 1015.5 hPa SE 3.2 km/h 6.4 km/h 68% 0 mm 374 W/m2
09:28 12.9 °C 7.2 °C 1015.5 hPa SSW 3.2 km/h 6.4 km/h 68% 0 mm 475 W/m2
09:34 13.1 °C 7.1 °C 1015.5 hPa SSE 1.6 km/h 3.2 km/h 67% 0 mm 515 W/m2
09:40 13.5 °C 7.5 °C 1015.5 hPa SSW 1.6 km/h 1.6 km/h 67% 0 mm 589 W/m2
09:46 13.8 °C 7.3 °C 1015.1 hPa SSW 1.6 km/h 8 km/h 65% 0 mm 548 W/m2
09:54 13.7 °C 7 °C 1015.1 hPa SSE 3.2 km/h 6.4 km/h 64% 0 mm 657 W/m2
10:00 14.2 °C 7.9 °C 1015.5 hPa SSW 3.2 km/h 3.2 km/h 66% 0 mm 461 W/m2
10:05 14.2 °C 7.2 °C 1015.1 hPa SSW 1.6 km/h 3.2 km/h 63% 0 mm 487 W/m2
10:12 14.2 °C 7.4 °C 1015.5 hPa SSW 1.6 km/h 4.8 km/h 64% 0 mm 390 W/m2
10:18 14 °C 7.3 °C 1015.5 hPa SSW 4.8 km/h 8 km/h 64% 0 mm 404 W/m2
10:24 14.3 °C 8.1 °C 1015.5 hPa SW 3.2 km/h 3.2 km/h 66% 0 mm 497 W/m2
10:30 14.1 °C 7.2 °C 1015.5 hPa WSW 3.2 km/h 3.2 km/h 63% 0 mm 432 W/m2
10:36 14.7 °C 8.4 °C 1015.5 hPa WSW 1.6 km/h 3.2 km/h 66% 0 mm 1097 W/m2
10:42 15.6 °C 7.8 °C 1015.5 hPa North 1.6 km/h 3.2 km/h 60% 0 mm 585 W/m2
10:48 14.9 °C 7.7 °C 1015.1 hPa SE 3.2 km/h 6.4 km/h 62% 0 mm 469 W/m2
10:54 14.9 °C 7.9 °C 1015.1 hPa SW 3.2 km/h 6.4 km/h 63% 0 mm 466 W/m2
10:59 15.1 °C 8.1 °C 1015.5 hPa SW 1.6 km/h 1.6 km/h 63% 0 mm 485 W/m2
11:05 15.3 °C 7.3 °C 1015.1 hPa Calm   3.2 km/h 59% 0 mm 534 W/m2
11:12 15.7 °C 7.9 °C 1015.1 hPa WSW 1.6 km/h 3.2 km/h 60% 0 mm 585 W/m2
11:18 15.7 °C 7.5 °C 1015.1 hPa WSW 1.6 km/h 3.2 km/h 58% 0 mm 501 W/m2
11:24 15.3 °C 7.1 °C 1014.8 hPa SSW 1.6 km/h 6.4 km/h 58% 0 mm 543 W/m2
11:30 15.8 °C 7.6 °C 1014.8 hPa SW 3.2 km/h 4.8 km/h 58% 0 mm 566 W/m2
11:38 16.4 °C 7.6 °C 1014.8 hPa SW 3.2 km/h 4.8 km/h 56% 0 mm 657 W/m2
11:44 17 °C 7.9 °C 1014.8 hPa WSW 1.6 km/h 3.2 km/h 55% 0 mm 805 W/m2
11:50 17 °C 7.1 °C 1014.8 hPa Calm   3.2 km/h 52% 0 mm 540 W/m2
11:56 16.7 °C 7.3 °C 1014.8 hPa SE 3.2 km/h 8 km/h 54% 0 mm 561 W/m2
12:02 16.9 °C 8.6 °C 1014.8 hPa WSW 4.8 km/h 4.8 km/h 58% 0 mm 979 W/m2
12:08 16.7 °C 7.6 °C 1014.4 hPa SSW 3.2 km/h 4.8 km/h 55% 0 mm 647 W/m2
12:14 16.8 °C 7.2 °C 1014.4 hPa SW 1.6 km/h 6.4 km/h 53% 0 mm 643 W/m2
12:20 16.9 °C 7.5 °C 1014.4 hPa SSW 3.2 km/h 3.2 km/h 54% 0 mm 728 W/m2
12:26 17.3 °C 8.2 °C 1014.4 hPa SW 1.6 km/h 3.2 km/h 55% 0 mm 947 W/m2
12:32 17.1 °C 7.4 °C 1014.4 hPa East 1.6 km/h 4.8 km/h 53% 0 mm 870 W/m2
12:38 17.8 °C 9.2 °C 1014.1 hPa West 1.6 km/h 4.8 km/h 57% 0 mm 1039 W/m2
12:44 17.9 °C 7 °C 1014.1 hPa WNW 1.6 km/h 3.2 km/h 49% 0 mm 417 W/m2
12:50 17.8 °C 7.8 °C 1013.8 hPa SW 3.2 km/h 3.2 km/h 52% 0 mm 796 W/m2
12:56 17.9 °C 7.4 °C 1013.8 hPa WSW 1.6 km/h 3.2 km/h 50% 0 mm 773 W/m2
13:02 18.1 °C 6.6 °C 1013.8 hPa WSW 1.6 km/h 3.2 km/h 47% 0 mm 728 W/m2
13:08 18.1 °C 6.9 °C 1013.8 hPa WSW 1.6 km/h 3.2 km/h 48% 0 mm 615 W/m2
13:14 17.9 °C 7 °C 1013.8 hPa SW 1.6 km/h 6.4 km/h 49% 0 mm 663 W/m2
13:20 18 °C 7.1 °C 1013.4 hPa SW 1.6 km/h 1.6 km/h 49% 0 mm 847 W/m2
13:26 18.1 °C 7.8 °C 1013.4 hPa SSE 1.6 km/h 4.8 km/h 51% 0 mm 749 W/m2
13:32 18.3 °C 7.7 °C 1013.1 hPa North 3.2 km/h 4.8 km/h 50% 0 mm 422 W/m2
13:38 17.6 °C 7.3 °C 1013.1 hPa NE 4.8 km/h 4.8 km/h 51% 0 mm 376 W/m2
13:44 17.7 °C 7.1 °C 1013.1 hPa SE 4.8 km/h 8 km/h 50% 0 mm 283 W/m2
13:50 17.5 °C 6.9 °C 1013.1 hPa East 4.8 km/h 4.8 km/h 50% 0 mm 214 W/m2
13:56 17.4 °C 7.5 °C 1012.8 hPa East 3.2 km/h 4.8 km/h 52% 0 mm 889 W/m2
14:02 18.1 °C 6.9 °C 1012.8 hPa SSE 1.6 km/h 6.4 km/h 48% 0 mm 928 W/m2
14:08 18.2 °C 7.6 °C 1012.8 hPa SE 3.2 km/h 6.4 km/h 50% 0 mm 954 W/m2
14:14 18.4 °C 7.5 °C 1012.8 hPa SSW 3.2 km/h 6.4 km/h 49% 0 mm 998 W/m2
14:20 18.8 °C 7.3 °C 1012.8 hPa NNE 3.2 km/h 4.8 km/h 47% 0 mm 309 W/m2
14:26 18.2 °C 7.6 °C 1012.8 hPa ENE 4.8 km/h 8 km/h 50% 0 mm 315 W/m2
14:32 18.2 °C 8.2 °C 1012.8 hPa ENE 3.2 km/h 6.4 km/h 52% 0 mm 831 W/m2
14:38 18.6 °C 7.6 °C 1012.4 hPa SSW 3.2 km/h 6.4 km/h 49% 0 mm 814 W/m2
14:44 18.3 °C 7.7 °C 1012.4 hPa NE 3.2 km/h 6.4 km/h 50% 0 mm 265 W/m2
14:50 18.7 °C 7.7 °C 1012.4 hPa SE 3.2 km/h 4.8 km/h 49% 0 mm 791 W/m2
14:56 18.2 °C 6.7 °C 1012.4 hPa ENE 6.4 km/h 8 km/h 47% 0 mm 708 W/m2
15:02 18.6 °C 7 °C 1012.4 hPa NNE 3.2 km/h 8 km/h 47% 0 mm 450 W/m2
15:08 18.6 °C 7.4 °C 1012.4 hPa ENE 3.2 km/h 9.7 km/h 48% 0 mm 529 W/m2
15:14 18.5 °C 7.3 °C 1012.4 hPa SSE 4.8 km/h 6.4 km/h 48% 0 mm 424 W/m2
15:20 18.6 °C 8 °C 1012.4 hPa SE 3.2 km/h 6.4 km/h 50% 0 mm 359 W/m2
15:26 18.4 °C 6.9 °C 1012.4 hPa East 3.2 km/h 6.4 km/h 47% 0 mm 355 W/m2
15:32 18.4 °C 7.2 °C 1012.4 hPa NNW 1.6 km/h 3.2 km/h 48% 0 mm 274 W/m2
15:38 18.6 °C 6.4 °C 1012.1 hPa NNW 1.6 km/h 3.2 km/h 45% 0 mm 236 W/m2
15:44 18.4 °C 6.6 °C 1012.1 hPa NE 1.6 km/h 3.2 km/h 46% 0 mm 264 W/m2
15:50 18.5 °C 6.9 °C 1012.1 hPa NE 1.6 km/h 1.6 km/h 47% 0 mm 260 W/m2
15:56 18.4 °C 6.9 °C 1012.1 hPa NE 1.6 km/h 4.8 km/h 47% 0 mm 339 W/m2
16:02 18.5 °C 6.9 °C 1011.7 hPa NE 1.6 km/h 1.6 km/h 47% 0 mm 297 W/m2
16:08 18.8 °C 6.6 °C 1011.7 hPa Calm   1.6 km/h 45% 0 mm 526 W/m2
16:14 19.3 °C 8 °C 1011.7 hPa NNE 1.6 km/h 3.2 km/h 48% 0 mm 508 W/m2
16:20 19.6 °C 7.6 °C 1011.7 hPa North 1.6 km/h 3.2 km/h 46% 0 mm 330 W/m2
16:26 19.2 °C 7.6 °C 1011.7 hPa NE 3.2 km/h 4.8 km/h 47% 0 mm 181 W/m2
16:32 18.9 °C 7.4 °C 1011.7 hPa West 3.2 km/h 4.8 km/h 47% 0 mm 181 W/m2
16:38 18.7 °C 8.1 °C 1011.7 hPa NNE 3.2 km/h 6.4 km/h 50% 0 mm 193 W/m2
16:44 18.7 °C 7.7 °C 1011.7 hPa SSE 3.2 km/h 4.8 km/h 49% 0 mm 257 W/m2
16:50 19.1 °C 7.5 °C 1011.7 hPa ENE 1.6 km/h 1.6 km/h 47% 0 mm 380 W/m2
16:56 19.1 °C 6.9 °C 1011.7 hPa SE 1.6 km/h 1.6 km/h 45% 0 mm 360 W/m2
17:02 19.2 °C 7 °C 1011.7 hPa Calm   3.2 km/h 45% 0 mm 176 W/m2
17:08 19 °C 6.4 °C 1011.7 hPa ENE 3.2 km/h 3.2 km/h 44% 0 mm 107 W/m2
17:14 18.8 °C 6.6 °C 1011.4 hPa ENE 1.6 km/h 3.2 km/h 45% 0 mm 84 W/m2
17:20 18.7 °C 6.5 °C 1011.7 hPa Calm   3.2 km/h 45% 0 mm 118 W/m2
17:26 18.6 °C 7.1 °C 1011.7 hPa Calm   3.2 km/h 47% 0 mm 153 W/m2
17:32 18.6 °C 6.1 °C 1011.4 hPa Calm   1.6 km/h 44% 0 mm 165 W/m2
17:38 18.7 °C 6.5 °C 1011.4 hPa NNW 1.6 km/h 1.6 km/h 45% 0 mm 135 W/m2
17:44 18.7 °C 6.5 °C 1011.4 hPa ENE 1.6 km/h 1.6 km/h 45% 0 mm 127 W/m2
17:50 18.7 °C 6.2 °C 1011.4 hPa North 1.6 km/h 1.6 km/h 44% 0 mm 146 W/m2
17:56 18.6 °C 6.4 °C 1011.1 hPa ENE 1.6 km/h 4.8 km/h 45% 0 mm 156 W/m2
18:02 18.6 °C 5.8 °C 1011.1 hPa ENE 3.2 km/h 3.2 km/h 43% 0 mm 148 W/m2
18:08 18.7 °C 6.2 °C 1011.1 hPa NE 3.2 km/h 4.8 km/h 44% 0 mm 139 W/m2
18:14 18.7 °C 6.5 °C 1011.1 hPa ENE 1.6 km/h 3.2 km/h 45% 0 mm 127 W/m2
18:20 18.6 °C 6.4 °C 1011.1 hPa ENE 1.6 km/h 1.6 km/h 45% 0 mm 121 W/m2
18:26 18.6 °C 6.7 °C 1011.1 hPa ENE 1.6 km/h 3.2 km/h 46% 0 mm 120 W/m2
18:32 18.5 °C 6.7 °C 1011.1 hPa ENE 1.6 km/h 3.2 km/h 46% 0 mm 105 W/m2
18:38 18.5 °C 5.7 °C 1011.1 hPa Calm   3.2 km/h 43% 0 mm 86 W/m2
18:44 18.4 °C 5.6 °C 1011.4 hPa Calm     43% 0 mm 74 W/m2
18:50 18.4 °C 7.2 °C 1011.1 hPa Calm     48% 0 mm 72 W/m2
18:56 18.3 °C 6.8 °C 1011.1 hPa Calm     47% 0 mm 63 W/m2
19:02 18 °C 7.4 °C 1011.1 hPa NW 1.6 km/h 4.8 km/h 50% 0 mm 62 W/m2
19:08 17.3 °C 7.7 °C 1011.1 hPa NNW 4.8 km/h 8 km/h 53% 0 mm 54 W/m2
19:14 16.9 °C 8.1 °C 1011.1 hPa NNW 3.2 km/h 4.8 km/h 56% 0 mm 47 W/m2
19:20 16.6 °C 8.1 °C 1011.4 hPa NNW 1.6 km/h 1.6 km/h 57% 0 mm 40 W/m2
19:26 16.4 °C 8.1 °C 1011.4 hPa NNW 1.6 km/h 1.6 km/h 58% 0 mm 33 W/m2
19:32 16.1 °C 7.8 °C 1011.4 hPa NW 1.6 km/h 3.2 km/h 58% 0 mm 28 W/m2
19:38 15.8 °C 7.5 °C 1011.4 hPa NW 3.2 km/h 3.2 km/h 58% 0 mm 25 W/m2
19:44 15.6 °C 7.6 °C 1011.7 hPa NNW 3.2 km/h 8 km/h 59% 0 mm 23 W/m2
19:50 15.4 °C 7.7 °C 1011.7 hPa NW 1.6 km/h 1.6 km/h 60% 0 mm 18 W/m2
19:56 15.3 °C 7.6 °C 1011.7 hPa NW 1.6 km/h 3.2 km/h 60% 0 mm 14 W/m2
20:02 15.2 °C 7.7 °C 1011.7 hPa NW 1.6 km/h 1.6 km/h 61% 0 mm 9 W/m2
20:08 15.1 °C 7.7 °C 1011.7 hPa Calm   1.6 km/h 61% 0 mm 0 W/m2
20:14 14.9 °C 7.2 °C 1011.7 hPa Calm     60% 0 mm 0 W/m2
20:20 14.9 °C 7.7 °C 1011.7 hPa Calm     62% 0 mm 0 W/m2
20:26 14.8 °C 7.6 °C 1011.7 hPa Calm   1.6 km/h 62% 0 mm 0 W/m2
20:32 14.7 °C 7.5 °C 1011.7 hPa NNE 1.6 km/h 1.6 km/h 62% 0 mm 0 W/m2
20:38 14.7 °C 7.4 °C 1011.7 hPa Calm   1.6 km/h 62% 0 mm 0 W/m2
20:44 14.6 °C 7.4 °C 1011.7 hPa Calm     62% 0 mm 0 W/m2
20:50 14.6 °C 7.8 °C 1011.7 hPa Calm     64% 0 mm 0 W/m2
20:56 14.4 °C 7.5 °C 1011.7 hPa Calm     63% 0 mm 0 W/m2
21:02 14.3 °C 7.6 °C 1011.7 hPa Calm     64% 0 mm 0 W/m2
21:08 14.3 °C 7.1 °C 1011.7 hPa Calm     62% 0 mm 0 W/m2
21:14 14.2 °C 7.3 °C 1011.7 hPa Calm     63% 0 mm 0 W/m2
21:20 14.2 °C 7.2 °C 1011.7 hPa Calm     63% 0 mm 0 W/m2
21:26 14.1 °C 7.4 °C 1011.7 hPa Calm     64% 0 mm 0 W/m2
21:32 14.1 °C 7.3 °C 1011.7 hPa Calm     64% 0 mm 0 W/m2
21:38 13.9 °C 7.2 °C 1011.7 hPa Calm     64% 0 mm 0 W/m2
21:44 13.9 °C 6.9 °C 1011.7 hPa Calm     63% 0 mm 0 W/m2
21:50 13.9 °C 7.4 °C 1012.1 hPa Calm     65% 0 mm 0 W/m2
21:56 13.9 °C 7.4 °C 1012.1 hPa Calm     65% 0 mm 0 W/m2
22:02 13.8 °C 7.8 °C 1012.1 hPa Calm   3.2 km/h 67% 0 mm 0 W/m2
22:08 13.8 °C 7.8 °C 1012.1 hPa Calm   3.2 km/h 67% 0 mm 0 W/m2
22:14 13.7 °C 8.1 °C 1012.1 hPa Calm     69% 0 mm 0 W/m2
22:20 13.7 °C 8.1 °C 1012.1 hPa Calm     69% 0 mm 0 W/m2
22:26 13.6 °C 8 °C 1012.1 hPa Calm     69% 0 mm 0 W/m2
22:32 13.4 °C 8.1 °C 1011.7 hPa Calm     70% 0 mm 0 W/m2
22:38 13.4 °C 8 °C 1011.7 hPa Calm     70% 0 mm 0 W/m2
22:44 13.3 °C 7.7 °C 1011.7 hPa Calm   3.2 km/h 69% 0 mm 0 W/m2
22:50 13.3 °C 8.4 °C 1011.7 hPa SW 1.6 km/h 1.6 km/h 72% 0 mm 0 W/m2
22:56 13.3 °C 8.1 °C 1011.7 hPa WSW 1.6 km/h 1.6 km/h 71% 0 mm 0 W/m2
23:02 13.3 °C 8.3 °C 1011.7 hPa WSW 1.6 km/h 3.2 km/h 72% 0 mm 0 W/m2
23:08 13.3 °C 8.3 °C 1011.7 hPa Calm   3.2 km/h 72% 0 mm 0 W/m2
23:14 13.2 °C 8.5 °C 1011.7 hPa SW 1.6 km/h 4.8 km/h 73% 0 mm 0 W/m2
23:20 13.2 °C 8.4 °C 1011.7 hPa SW 1.6 km/h 1.6 km/h 73% 0 mm 0 W/m2
23:26 13.2 °C 8.5 °C 1011.7 hPa SW 1.6 km/h 6.4 km/h 73% 0 mm 0 W/m2
23:32 13.2 °C 8.4 °C 1011.7 hPa Calm   1.6 km/h 73% 0 mm 0 W/m2
23:38 13.1 °C 8.4 °C 1011.7 hPa Calm   1.6 km/h 73% 0 mm 0 W/m2
23:44 13.1 °C 8.3 °C 1011.7 hPa Calm   1.6 km/h 73% 0 mm 0 W/m2
23:50 13.1 °C 8.1 °C 1011.7 hPa West 1.6 km/h 1.6 km/h 72% 0 mm 0 W/m2
23:56 13.1 °C 8.3 °C 1011.7 hPa West 1.6 km/h 3.2 km/h 73% 0 mm 0 W/m2
Country Meadow, Clay, NY, USA
Compliments of Weather Underground - 2 mb